FDX1297 YSSY-YMML
Flight info
| Callsign | FDX1297 |
|---|---|
| Flight time | 1h 8m |
| Altitude | 32000 |
| Route | WOL H65 LEECE Q29 ML |
| Aircraft | B77L/H-SDE1E2E3FGHIJ2J3J4J5M1RWXY/LB1D1 |
Departure
| Time | 2026-05-04 07:46 |
|---|---|
| Airport | Sydney Kingsford Smith International Airport (YSSY) |
Arrival
| Time | 2026-05-04 08:54 |
|---|---|
| Airport | Melbourne Airport (YMML) |
| Time | Latitude | Longitude | Altitude | Speed | Heading |
|---|---|---|---|---|---|
| 2026-05-04 07:12 | -33.93111 | 151.16773 | 34 ft | 0 kts | 257° |
| 2026-05-04 07:31 | -33.93111 | 151.16774 | 34 ft | 1 kts | 257° |
| 2026-05-04 07:31 | -33.93105 | 151.16803 | 32 ft | 4 kts | 257° |
| 2026-05-04 07:33 | -33.93041 | 151.16908 | 33 ft | 0 kts | 168° |
| 2026-05-04 07:38 | -33.93197 | 151.16949 | 34 ft | 15 kts | 168° |
| 2026-05-04 07:38 | -33.93301 | 151.17021 | 34 ft | 22 kts | 137° |
| 2026-05-04 07:38 | -33.93439 | 151.17089 | 34 ft | 22 kts | 166° |
| 2026-05-04 07:38 | -33.93587 | 151.17127 | 34 ft | 22 kts | 168° |
| 2026-05-04 07:39 | -33.93735 | 151.17164 | 33 ft | 22 kts | 168° |
| 2026-05-04 07:39 | -33.93884 | 151.17202 | 33 ft | 22 kts | 168° |
| 2026-05-04 07:39 | -33.94032 | 151.17241 | 34 ft | 22 kts | 168° |
| 2026-05-04 07:39 | -33.94180 | 151.17279 | 33 ft | 22 kts | 168° |
| 2026-05-04 07:40 | -33.94328 | 151.17318 | 35 ft | 22 kts | 167° |
| 2026-05-04 07:40 | -33.94488 | 151.17360 | 35 ft | 26 kts | 168° |
| 2026-05-04 07:40 | -33.94662 | 151.17405 | 35 ft | 26 kts | 168° |
| 2026-05-04 07:40 | -33.94837 | 151.17451 | 34 ft | 26 kts | 168° |
| 2026-05-04 07:41 | -33.95012 | 151.17496 | 34 ft | 26 kts | 168° |
| 2026-05-04 07:41 | -33.95188 | 151.17541 | 32 ft | 27 kts | 167° |
| 2026-05-04 07:41 | -33.95380 | 151.17591 | 34 ft | 29 kts | 168° |
| 2026-05-04 07:41 | -33.95579 | 151.17642 | 33 ft | 29 kts | 168° |
| 2026-05-04 07:42 | -33.95777 | 151.17694 | 35 ft | 29 kts | 167° |
| 2026-05-04 07:42 | -33.95976 | 151.17746 | 34 ft | 29 kts | 168° |
| 2026-05-04 07:42 | -33.96175 | 151.17798 | 35 ft | 29 kts | 168° |
| 2026-05-04 07:42 | -33.96350 | 151.17844 | 35 ft | 14 kts | 168° |
| 2026-05-04 07:43 | -33.96428 | 151.17890 | 35 ft | 11 kts | 121° |
| 2026-05-04 07:43 | -33.96433 | 151.17914 | 34 ft | 0 kts | 95° |
| 2026-05-04 07:43 | -33.96433 | 151.17921 | 34 ft | 5 kts | 95° |
| 2026-05-04 07:44 | -33.96419 | 151.18026 | 34 ft | 9 kts | 79° |
| 2026-05-04 07:44 | -33.96380 | 151.18054 | 34 ft | 8 kts | 348° |
| 2026-05-04 07:44 | -33.96376 | 151.18053 | 34 ft | 0 kts | 347° |
| 2026-05-04 07:45 | -33.96375 | 151.18052 | 34 ft | 4 kts | 347° |
| 2026-05-04 07:45 | -33.96237 | 151.18015 | 33 ft | 39 kts | 347° |
| 2026-05-04 07:45 | -33.95736 | 151.17887 | 33 ft | 106 kts | 347° |
| 2026-05-04 07:46 | -33.94823 | 151.17649 | 34 ft | 159 kts | 348° |
| 2026-05-04 07:46 | -33.93663 | 151.17335 | 329 ft | 173 kts | 349° |
| 2026-05-04 07:46 | -33.92499 | 151.17007 | 982 ft | 170 kts | 348° |
| 2026-05-04 07:46 | -33.91477 | 151.16319 | 1491 ft | 183 kts | 316° |
| 2026-05-04 07:47 | -33.90831 | 151.14953 | 1982 ft | 192 kts | 301° |
| 2026-05-04 07:47 | -33.90190 | 151.13441 | 2335 ft | 213 kts | 302° |
| 2026-05-04 07:47 | -33.89414 | 151.11805 | 2818 ft | 229 kts | 303° |
| 2026-05-04 07:49 | -33.83522 | 150.94815 | 7342 ft | 253 kts | 275° |
| 2026-05-04 07:49 | -33.83921 | 150.92704 | 7895 ft | 273 kts | 245° |
| 2026-05-04 07:49 | -33.85226 | 150.90993 | 8602 ft | 291 kts | 221° |
| 2026-05-04 07:50 | -33.87090 | 150.89916 | 9379 ft | 305 kts | 199° |
| 2026-05-04 07:50 | -33.89237 | 150.89707 | 10098 ft | 318 kts | 176° |
| 2026-05-04 07:50 | -33.91419 | 150.90451 | 10527 ft | 339 kts | 154° |
| 2026-05-04 07:50 | -33.93427 | 150.92126 | 10718 ft | 364 kts | 140° |
| 2026-05-04 07:51 | -33.95402 | 150.94207 | 10932 ft | 389 kts | 139° |
| 2026-05-04 07:51 | -33.97656 | 150.96110 | 11093 ft | 405 kts | 158° |
| 2026-05-04 07:51 | -34.00408 | 150.96840 | 11710 ft | 408 kts | 182° |
| 2026-05-04 07:51 | -34.03187 | 150.96355 | 12500 ft | 401 kts | 199° |
| 2026-05-04 07:52 | -34.05909 | 150.95425 | 13142 ft | 411 kts | 200° |
| 2026-05-04 07:52 | -34.08688 | 150.94484 | 13953 ft | 417 kts | 199° |
| 2026-05-04 07:52 | -34.11491 | 150.93548 | 14770 ft | 419 kts | 199° |
| 2026-05-04 07:52 | -34.14314 | 150.92614 | 15585 ft | 422 kts | 199° |
| 2026-05-04 07:53 | -34.17167 | 150.91679 | 16328 ft | 427 kts | 199° |
| 2026-05-04 07:54 | -34.37901 | 150.84938 | 21088 ft | 453 kts | 200° |
| 2026-05-04 07:55 | -34.40958 | 150.83943 | 21714 ft | 457 kts | 201° |
| 2026-05-04 07:55 | -34.44045 | 150.82936 | 22273 ft | 462 kts | 201° |
| 2026-05-04 07:55 | -34.47158 | 150.81921 | 22906 ft | 464 kts | 201° |
| 2026-05-04 07:55 | -34.50298 | 150.80897 | 23508 ft | 469 kts | 201° |
| 2026-05-04 07:56 | -34.53387 | 150.79814 | 23918 ft | 465 kts | 207° |
| 2026-05-04 07:56 | -34.56212 | 150.77900 | 24216 ft | 457 kts | 225° |
| 2026-05-04 07:56 | -34.58353 | 150.75214 | 24703 ft | 442 kts | 240° |
| 2026-05-04 07:56 | -34.60110 | 150.72161 | 25152 ft | 444 kts | 242° |
| 2026-05-04 07:57 | -34.61905 | 150.69070 | 25582 ft | 449 kts | 241° |
| 2026-05-04 07:57 | -34.63735 | 150.65966 | 26059 ft | 453 kts | 241° |
| 2026-05-04 07:57 | -34.65587 | 150.62856 | 26572 ft | 456 kts | 240° |
| 2026-05-04 07:57 | -34.67462 | 150.59725 | 27045 ft | 460 kts | 240° |
| 2026-05-04 07:58 | -34.69355 | 150.56569 | 27496 ft | 464 kts | 240° |
| 2026-05-04 07:58 | -34.71263 | 150.53388 | 27962 ft | 467 kts | 240° |
| 2026-05-04 07:58 | -34.73186 | 150.50183 | 28392 ft | 471 kts | 240° |
| 2026-05-04 07:58 | -34.75119 | 150.46957 | 28828 ft | 474 kts | 240° |
| 2026-05-04 07:59 | -34.77067 | 150.43703 | 29227 ft | 478 kts | 240° |
| 2026-05-04 07:59 | -34.79032 | 150.40413 | 29541 ft | 482 kts | 241° |
| 2026-05-04 07:59 | -34.81011 | 150.37115 | 29981 ft | 482 kts | 241° |
| 2026-05-04 07:59 | -34.82977 | 150.33822 | 30561 ft | 478 kts | 241° |
| 2026-05-04 08:00 | -34.84920 | 150.30563 | 31340 ft | 469 kts | 241° |
| 2026-05-04 08:00 | -34.86820 | 150.27375 | 31970 ft | 464 kts | 242° |
| 2026-05-04 08:02 | -35.01936 | 150.01873 | 32043 ft | 461 kts | 242° |
| 2026-05-04 08:02 | -35.03823 | 149.98671 | 32163 ft | 466 kts | 242° |
| 2026-05-04 08:02 | -35.05716 | 149.95465 | 32568 ft | 465 kts | 242° |
| 2026-05-04 08:03 | -35.07602 | 149.92278 | 33211 ft | 459 kts | 242° |
| 2026-05-04 08:03 | -35.08837 | 149.90194 | 33619 ft | 455 kts | 242° |
| 2026-05-04 08:03 | -35.10686 | 149.87066 | 34063 ft | 454 kts | 243° |
| 2026-05-04 08:03 | -35.12541 | 149.83913 | 34093 ft | 459 kts | 243° |
| 2026-05-04 08:04 | -35.14413 | 149.80727 | 34369 ft | 459 kts | 243° |
| 2026-05-04 08:04 | -35.16873 | 149.76545 | 34909 ft | 455 kts | 243° |
| 2026-05-04 08:04 | -35.18122 | 149.74421 | 35097 ft | 455 kts | 243° |
| 2026-05-04 08:04 | -35.19967 | 149.71280 | 35456 ft | 453 kts | 243° |
| 2026-05-04 08:05 | -35.21777 | 149.68198 | 35848 ft | 450 kts | 243° |
| 2026-05-04 08:05 | -35.23601 | 149.65086 | 36077 ft | 451 kts | 243° |
| 2026-05-04 08:05 | -35.27261 | 149.58827 | 36070 ft | 450 kts | 243° |
| 2026-05-04 08:06 | -35.30891 | 149.52618 | 36049 ft | 447 kts | 243° |
| 2026-05-04 08:06 | -35.34504 | 149.46421 | 36053 ft | 446 kts | 243° |
| 2026-05-04 08:08 | -35.48868 | 149.21665 | 36054 ft | 446 kts | 243° |
| 2026-05-04 08:11 | -35.65105 | 148.93500 | 36045 ft | 449 kts | 243° |
| 2026-05-04 08:11 | -35.70514 | 148.84067 | 36059 ft | 450 kts | 244° |
| 2026-05-04 08:12 | -35.74107 | 148.77785 | 36073 ft | 451 kts | 244° |
| 2026-05-04 08:12 | -35.77720 | 148.71450 | 36069 ft | 451 kts | 244° |
| 2026-05-04 08:13 | -35.81327 | 148.65123 | 36068 ft | 451 kts | 244° |
| 2026-05-04 08:13 | -35.84930 | 148.58787 | 36075 ft | 451 kts | 244° |
| 2026-05-04 08:14 | -35.88532 | 148.52441 | 36072 ft | 452 kts | 244° |
| 2026-05-04 08:16 | -36.02796 | 148.27038 | 36073 ft | 452 kts | 244° |
| 2026-05-04 08:16 | -36.06379 | 148.20626 | 36081 ft | 453 kts | 244° |
| 2026-05-04 08:17 | -36.09968 | 148.14189 | 36071 ft | 455 kts | 244° |
| 2026-05-04 08:17 | -36.13572 | 148.07726 | 36070 ft | 456 kts | 244° |
| 2026-05-04 08:19 | -36.27956 | 147.81909 | 36072 ft | 455 kts | 244° |
| 2026-05-04 08:20 | -36.31518 | 147.75483 | 36051 ft | 454 kts | 244° |
| 2026-05-04 08:20 | -36.35110 | 147.68987 | 36052 ft | 453 kts | 244° |
| 2026-05-04 08:21 | -36.38667 | 147.62533 | 36059 ft | 453 kts | 244° |
| 2026-05-04 08:21 | -36.42204 | 147.56097 | 36054 ft | 455 kts | 243° |
| 2026-05-04 08:22 | -36.45774 | 147.49593 | 36054 ft | 456 kts | 243° |
| 2026-05-04 08:24 | -36.60048 | 147.23467 | 36041 ft | 456 kts | 243° |
| 2026-05-04 08:24 | -36.63609 | 147.16916 | 36023 ft | 456 kts | 243° |
| 2026-05-04 08:25 | -36.67165 | 147.10361 | 36063 ft | 456 kts | 243° |
| 2026-05-04 08:25 | -36.70721 | 147.03795 | 36028 ft | 456 kts | 243° |
| 2026-05-04 08:27 | -36.84458 | 146.78385 | 36034 ft | 426 kts | 244° |
| 2026-05-04 08:28 | -36.87753 | 146.72248 | 36021 ft | 423 kts | 244° |
| 2026-05-04 08:28 | -36.91025 | 146.66150 | 35974 ft | 421 kts | 244° |
| 2026-05-04 08:29 | -36.92650 | 146.63115 | 35626 ft | 419 kts | 245° |
| 2026-05-04 08:29 | -36.94268 | 146.60093 | 35116 ft | 418 kts | 245° |
| 2026-05-04 08:29 | -36.95887 | 146.57065 | 34598 ft | 418 kts | 245° |
| 2026-05-04 08:31 | -37.06739 | 146.36706 | 29222 ft | 389 kts | 247° |
| 2026-05-04 08:33 | -37.16682 | 146.17921 | 23885 ft | 355 kts | 245° |
| 2026-05-04 08:33 | -37.18039 | 146.15344 | 23110 ft | 351 kts | 245° |
| 2026-05-04 08:35 | -37.27146 | 145.98003 | 19139 ft | 327 kts | 242° |
| 2026-05-04 08:35 | -37.28394 | 145.95622 | 18793 ft | 325 kts | 242° |
| 2026-05-04 08:35 | -37.29632 | 145.93256 | 18478 ft | 324 kts | 242° |
| 2026-05-04 08:35 | -37.30865 | 145.90900 | 18087 ft | 322 kts | 242° |
| 2026-05-04 08:37 | -37.38570 | 145.76218 | 14860 ft | 343 kts | 241° |
| 2026-05-04 08:37 | -37.39884 | 145.73709 | 14431 ft | 343 kts | 241° |
| 2026-05-04 08:37 | -37.41192 | 145.71210 | 14080 ft | 341 kts | 241° |
| 2026-05-04 08:38 | -37.42491 | 145.68729 | 13753 ft | 338 kts | 241° |
| 2026-05-04 08:38 | -37.43777 | 145.66268 | 13313 ft | 336 kts | 241° |
| 2026-05-04 08:38 | -37.45043 | 145.63845 | 12878 ft | 335 kts | 241° |
| 2026-05-04 08:40 | -37.53427 | 145.49433 | 11309 ft | 254 kts | 240° |
| 2026-05-04 08:40 | -37.54462 | 145.47640 | 10792 ft | 254 kts | 240° |
| 2026-05-04 08:40 | -37.55513 | 145.45825 | 10340 ft | 258 kts | 240° |
| 2026-05-04 08:41 | -37.56544 | 145.44049 | 10146 ft | 250 kts | 240° |
| 2026-05-04 08:41 | -37.57564 | 145.42301 | 9970 ft | 246 kts | 240° |
| 2026-05-04 08:41 | -37.58580 | 145.40566 | 9766 ft | 248 kts | 240° |
| 2026-05-04 08:41 | -37.59611 | 145.38806 | 9624 ft | 251 kts | 240° |
| 2026-05-04 08:42 | -37.60672 | 145.37049 | 9414 ft | 251 kts | 242° |
| 2026-05-04 08:42 | -37.61679 | 145.35239 | 9223 ft | 254 kts | 241° |
| 2026-05-04 08:42 | -37.62720 | 145.33428 | 9080 ft | 255 kts | 241° |
| 2026-05-04 08:42 | -37.63762 | 145.31622 | 8882 ft | 254 kts | 241° |
| 2026-05-04 08:43 | -37.64793 | 145.29833 | 8674 ft | 250 kts | 241° |
| 2026-05-04 08:43 | -37.65810 | 145.28067 | 8504 ft | 247 kts | 241° |
| 2026-05-04 08:43 | -37.66817 | 145.26309 | 8323 ft | 246 kts | 240° |
| 2026-05-04 08:43 | -37.67816 | 145.24563 | 8133 ft | 244 kts | 241° |
| 2026-05-04 08:44 | -37.68806 | 145.22829 | 7965 ft | 242 kts | 240° |
| 2026-05-04 08:44 | -37.69773 | 145.21138 | 7759 ft | 233 kts | 241° |
| 2026-05-04 08:46 | -37.76102 | 145.10113 | 6424 ft | 223 kts | 242° |
| 2026-05-04 08:46 | -37.77007 | 145.08539 | 6135 ft | 220 kts | 242° |
| 2026-05-04 08:46 | -37.77895 | 145.06991 | 5849 ft | 215 kts | 242° |
| 2026-05-04 08:46 | -37.78765 | 145.05473 | 5590 ft | 212 kts | 242° |
| 2026-05-04 08:47 | -37.79627 | 145.03966 | 5337 ft | 211 kts | 243° |
| 2026-05-04 08:47 | -37.80486 | 145.02466 | 5100 ft | 210 kts | 243° |
| 2026-05-04 08:47 | -37.81300 | 145.00961 | 4820 ft | 201 kts | 254° |
| 2026-05-04 08:47 | -37.81647 | 144.99329 | 4652 ft | 192 kts | 264° |
| 2026-05-04 08:48 | -37.81924 | 144.97670 | 4460 ft | 188 kts | 263° |
| 2026-05-04 08:48 | -37.82202 | 144.96111 | 4338 ft | 175 kts | 263° |
| 2026-05-04 08:48 | -37.82463 | 144.94629 | 4246 ft | 174 kts | 264° |
| 2026-05-04 08:48 | -37.82612 | 144.93629 | 4105 ft | 175 kts | 266° |
| 2026-05-04 08:49 | -37.82861 | 144.91617 | 3792 ft | 170 kts | 267° |
| 2026-05-04 08:50 | -37.79905 | 144.86262 | 2618 ft | 156 kts | 343° |
| 2026-05-04 08:50 | -37.78874 | 144.86059 | 2582 ft | 143 kts | 343° |
| 2026-05-04 08:51 | -37.77920 | 144.85884 | 2401 ft | 135 kts | 344° |
| 2026-05-04 08:51 | -37.77020 | 144.85704 | 2157 ft | 133 kts | 342° |
| 2026-05-04 08:51 | -37.76107 | 144.85499 | 1959 ft | 134 kts | 345° |
| 2026-05-04 08:51 | -37.75177 | 144.85313 | 1677 ft | 135 kts | 347° |
| 2026-05-04 08:52 | -37.74259 | 144.85156 | 1470 ft | 133 kts | 345° |
| 2026-05-04 08:52 | -37.73332 | 144.84977 | 1320 ft | 134 kts | 349° |
| 2026-05-04 08:52 | -37.72407 | 144.84788 | 1095 ft | 135 kts | 351° |
| 2026-05-04 08:52 | -37.71453 | 144.84604 | 918 ft | 141 kts | 353° |
| 2026-05-04 08:53 | -37.70482 | 144.84436 | 803 ft | 146 kts | 354° |
| 2026-05-04 08:54 | -37.66511 | 144.83876 | 408 ft | 0 kts | 90° |
| 2026-05-04 08:55 | -37.66511 | 144.83879 | 408 ft | 2 kts | 90° |
| 2026-05-04 08:55 | -37.66511 | 144.83910 | 408 ft | 6 kts | 90° |
| 2026-05-04 08:57 | -37.67186 | 144.84266 | 386 ft | 22 kts | 172° |
| 2026-05-04 09:01 | -37.67814 | 144.84788 | 376 ft | 0 kts | 172° |